Time;durP1;ratioP1;P1;durP2;ratioP2;P2;SDS_P1;SDS_P2;PMS_P1;PMS_P2;Temp;Humidity;BMP_temperature;BMP_pressure;BME280_temperature;BME280_humidity;BME280_pressure;Samples;Min_cycle;Max_cycle;Signal;HPM_P1;HPM_P2
2023/10/05 00:04:39;;;;;;;1999.90;999.90;;;;;;;8.50;100.00;98745.53;18559234;32;20060;-58
2023/10/05 00:14:48;;;;;;;1999.90;999.90;;;;;;;8.50;100.00;98753.63;18558838;32;20057;-60
2023/10/05 00:24:51;;;;;;;1999.90;999.90;;;;;;;8.42;100.00;98755.56;18558987;32;20452;-60
2023/10/05 00:35:14;;;;;;;1999.90;999.90;;;;;;;8.42;100.00;98766.34;18544616;32;20052;-58
2023/10/05 00:45:19;;;;;;;1999.90;999.90;;;;;;;8.51;100.00;98764.22;18560617;32;20049;-58
2023/10/05 00:55:26;;;;;;;1999.90;999.90;;;;;;;8.20;100.00;98757.13;18569493;32;20120;-60
2023/10/05 01:05:35;;;;;;;1999.90;999.90;;;;;;;8.13;100.00;98762.62;18554518;31;20167;-60
2023/10/05 01:15:37;;;;;;;1999.90;999.90;;;;;;;8.00;100.00;98758.19;18554888;32;20127;-60
2023/10/05 01:25:40;;;;;;;1999.90;999.90;;;;;;;7.95;100.00;98750.81;18553494;32;20041;-60
2023/10/05 01:35:42;;;;;;;1999.90;999.90;;;;;;;7.82;100.00;98732.12;18567053;32;20079;-60
2023/10/05 01:45:49;;;;;;;1999.90;999.90;;;;;;;7.79;100.00;98705.66;18566444;32;20040;-58
2023/10/05 01:56:03;;;;;;;;;;;;;;;7.65;100.00;98686.16;18564888;32;20444;-58
2023/10/05 02:06:23;;;;;;;1999.90;999.90;;;;;;;7.64;100.00;98698.75;18564963;32;20329;-59
2023/10/05 02:16:26;;;;;;;1999.90;999.90;;;;;;;7.60;100.00;98688.69;18550929;32;20061;-60
2023/10/05 02:36:34;;;;;;;1999.90;999.90;;;;;;;7.63;100.00;98677.47;18549164;32;20495;-60
2023/10/05 02:46:36;;;;;;;1999.90;999.90;;;;;;;7.61;100.00;98658.84;18562585;32;20376;-60
2023/10/05 02:56:43;;;;;;;1999.90;999.90;;;;;;;7.74;100.00;98652.50;18562021;31;20049;-60
2023/10/05 03:06:45;;;;;;;1999.90;999.90;;;;;;;7.75;100.00;98640.66;18561234;32;20101;-60
2023/10/05 03:16:56;;;;;;;1999.90;999.90;;;;;;;7.51;100.00;98663.97;18560907;32;20113;-60
2023/10/05 03:27:03;;;;;;;1999.90;999.90;;;;;;;7.76;100.00;98669.22;18547874;32;20036;-60
2023/10/05 03:37:13;;;;;;;1999.90;999.90;;;;;;;7.81;100.00;98671.22;18560372;32;20053;-60
2023/10/05 03:47:17;;;;;;;1999.90;999.90;;;;;;;7.95;100.00;98659.25;18545721;31;20104;-61
2023/10/05 03:57:19;;;;;;;1999.90;999.90;;;;;;;7.97;100.00;98659.00;18559453;32;20503;-60
2023/10/05 04:07:22;;;;;;;1999.90;999.90;;;;;;;8.01;100.00;98667.47;18544811;32;20317;-60
2023/10/05 04:17:24;;;;;;;1999.90;999.90;;;;;;;8.01;100.00;98656.69;18559054;32;20057;-60
2023/10/05 04:27:26;;;;;;;1999.90;999.90;;;;;;;8.07;100.00;98656.59;18569983;32;20049;-60
2023/10/05 04:37:30;;;;;;;1999.90;999.90;;;;;;;7.98;100.00;98652.56;18570411;32;20111;-60
2023/10/05 04:47:33;;;;;;;1999.90;999.90;;;;;;;7.76;100.00;98673.81;18554655;32;20099;-60
2023/10/05 04:57:35;;;;;;;1999.90;999.90;;;;;;;7.65;100.00;98675.37;18555864;32;20334;-60
2023/10/05 05:07:38;;;;;;;1999.90;999.90;;;;;;;7.46;100.00;98683.44;18554256;32;20094;-60
2023/10/05 05:17:42;;;;;;;1999.90;999.90;;;;;;;7.56;100.00;98687.50;18568020;32;20365;-60
2023/10/05 05:27:45;;;;;;;1999.90;999.90;;;;;;;7.52;100.00;98714.03;18553539;32;20063;-60
2023/10/05 06:00:12;;;;;;;1999.90;999.90;;;;;;;7.29;100.00;98693.19;18565839;32;20435;-60
2023/10/05 06:10:15;;;;;;;1999.90;999.90;;;;;;;7.21;100.00;98683.53;18565178;32;20471;-60
2023/10/05 06:20:19;;;;;;;1999.90;999.90;;;;;;;7.36;100.00;98685.84;18550385;32;20041;-60
2023/10/05 06:30:22;;;;;;;1999.90;999.90;;;;;;;7.54;100.00;98705.75;18536484;32;20452;-60
2023/10/05 06:40:25;;;;;;;1999.90;999.90;;;;;;;7.67;100.00;98726.28;18563097;32;20428;-60
2023/10/05 06:50:28;;;;;;;1999.90;999.90;;;;;;;8.14;100.00;98729.25;18535121;32;20045;-58
2023/10/05 07:00:38;;;;;;;1999.90;999.90;;;;;;;8.36;100.00;98728.72;18561760;32;20044;-58
2023/10/05 07:11:06;;;;;;;1999.90;999.90;;;;;;;8.47;100.00;98712.63;18560622;32;20066;-58
2023/10/05 07:21:42;;;;;;;1999.90;999.90;;;;;;;8.90;100.00;98720.66;18560883;32;20064;-58
2023/10/05 07:32:01;;;;;;;1999.90;999.90;;;;;;;9.12;100.00;98729.81;18560112;32;20049;-58
2023/10/05 07:42:04;;;;;;;1999.90;999.90;;;;;;;9.67;100.00;98735.87;18559983;32;20425;-58
2023/10/05 07:52:10;;;;;;;1999.90;999.90;;;;;;;10.13;100.00;98727.91;18559925;32;20425;-58
2023/10/05 08:02:13;;;;;;;1999.90;999.90;;;;;;;10.52;100.00;98744.31;18572912;32;20072;-58
2023/10/05 08:12:16;;;;;;;1999.90;999.90;;;;;;;11.01;100.00;98773.56;18571892;31;20083;-58
2023/10/05 08:22:20;;;;;;;1999.90;999.90;;;;;;;11.39;100.00;98773.84;18571380;32;20519;-58
2023/10/05 08:32:25;;;;;;;1999.90;999.90;;;;;;;11.47;100.00;98793.22;18570675;32;20053;-58
2023/10/05 08:42:30;;;;;;;;;;;;;;;11.84;100.00;98781.00;18570763;32;20207;-58
2023/10/05 08:52:39;;;;;;;1999.90;999.90;;;;;;;12.14;100.00;98802.31;18570266;32;19968;-58
2023/10/05 09:02:42;;;;;;;1999.90;999.90;;;;;;;12.63;100.00;98803.38;18569713;32;20148;-58
2023/10/05 09:12:58;;;;;;;1999.90;999.90;;;;;;;12.95;100.00;98832.47;18567534;31;20425;-58
2023/10/05 09:23:30;;;;;;;1999.90;999.90;;;;;;;13.31;100.00;98819.22;18567750;32;20056;-58
2023/10/05 09:33:36;;;;;;;1999.90;999.90;;;;;;;13.48;100.00;98803.59;18567358;32;20048;-58
2023/10/05 09:43:44;;;;;;;1999.90;999.90;;;;;;;13.97;100.00;98805.25;18553187;32;20462;-58
2023/10/05 09:53:51;;;;;;;1999.90;999.90;;;;;;;14.22;100.00;98790.13;18566349;32;20052;-58
2023/10/05 10:03:55;;;;;;;1999.90;999.90;;;;;;;14.03;100.00;98766.13;18565528;32;20049;-58
2023/10/05 10:14:14;;;;;;;1999.90;999.90;;;;;;;13.90;100.00;98783.72;18564843;32;20048;-58
2023/10/05 10:24:18;;;;;;;1999.90;999.90;;;;;;;14.50;100.00;98774.41;18563525;32;20060;-58
2023/10/05 10:34:49;;;;;;;1999.90;999.90;;;;;;;14.75;100.00;98768.25;18549284;32;20103;-58
2023/10/05 10:45:11;;;;;;;1999.90;999.90;;;;;;;15.60;100.00;98805.03;18682898;31;20098;-58
2023/10/05 10:55:16;;;;;;;1999.90;999.90;;;;;;;15.60;100.00;98805.03;18616795;31;20424;-58
2023/10/05 11:05:21;;;;;;;1999.90;999.90;;;;;;;15.16;100.00;98802.88;18615934;31;20079;-58
2023/10/05 11:15:30;;;;;;;1999.90;999.90;;;;;;;15.48;100.00;98802.56;18615378;31;20109;-58
2023/10/05 11:25:44;;;;;;;1999.90;999.90;;;;;;;16.47;100.00;98770.38;18614799;31;20388;-58
2023/10/05 11:35:53;;;;;;;1999.90;999.90;;;;;;;16.94;100.00;98778.00;18619675;31;20109;-58
2023/10/05 11:56:40;;;;;;;1999.90;999.90;;;;;;;16.74;100.00;98759.81;18494790;32;20094;-58
2023/10/05 12:06:43;;;;;;;1999.90;999.90;;;;;;;17.69;100.00;98736.84;18494754;32;20531;-58
2023/10/05 12:16:45;;;;;;;1999.90;999.90;;;;;;;17.45;100.00;98745.88;18481002;32;20098;-58
2023/10/05 12:26:59;;;;;;;1999.90;999.90;;;;;;;17.77;100.00;98752.63;18539909;31;20075;-58
2023/10/05 12:37:08;;;;;;;1999.90;999.90;;;;;;;18.39;100.00;98752.72;18618764;31;20083;-58
2023/10/05 12:47:11;;;;;;;1999.90;999.90;;;;;;;18.54;100.00;98756.34;18632156;31;20116;-58
2023/10/05 12:57:27;;;;;;;1999.90;999.90;;;;;;;17.95;100.00;98753.81;18631064;31;20056;-58
2023/10/05 13:07:30;;;;;;;1999.90;999.90;;;;;;;18.22;100.00;98741.44;18629673;31;20052;-58
2023/10/05 13:17:38;;;;;;;1999.90;999.90;;;;;;;18.26;100.00;98737.81;18629735;31;20507;-58
2023/10/05 13:27:42;;;;;;;1999.90;999.90;;;;;;;18.37;100.00;98704.81;18629052;31;20060;-58
2023/10/05 13:37:45;;;;;;;1999.90;999.90;;;;;;;18.54;89.44;98677.75;18628062;31;20045;-58
2023/10/05 13:47:47;;;;;;;1999.90;999.90;;;;;;;18.66;100.00;98684.69;18628130;31;20439;-58
2023/10/05 13:57:56;;;;;;;1999.90;999.90;;;;;;;18.66;98.08;98668.25;18627891;31;20047;-58
2023/10/05 14:07:59;;;;;;;1999.90;999.90;;;;;;;18.63;100.00;98678.66;18626677;31;20048;-58
2023/10/05 14:18:06;;;;;;;1999.90;999.90;;;;;;;18.61;95.11;98680.91;18619409;31;20053;-58
2023/10/05 14:28:13;;;;;;;1999.90;999.90;;;;;;;18.38;94.40;98662.66;18625800;31;20068;-58
2023/10/05 14:38:18;;;;;;;1999.90;999.90;;;;;;;18.18;98.08;98686.47;18610716;31;20095;-58
2023/10/05 14:48:29;;;;;;;1999.90;999.90;;;;;;;17.93;100.00;98691.16;18625791;31;20076;-58
2023/10/05 14:58:33;;;;;;;1999.90;999.90;;;;;;;17.77;100.00;98665.91;18611703;31;20062;-58
2023/10/05 15:08:36;;;;;;;;;;;;;;;17.54;95.43;98662.09;18610856;31;20044;-58
2023/10/05 15:18:41;;;;;;;1999.90;999.90;;;;;;;17.26;100.00;98655.56;18625208;31;19943;-58
2023/10/05 15:28:44;;;;;;;1999.90;999.90;;;;;;;17.19;100.00;98658.63;18632983;31;20060;-58
2023/10/05 15:38:51;;;;;;;1999.90;999.90;;;;;;;17.03;100.00;98641.56;18635708;31;20048;-58
2023/10/05 15:48:56;;;;;;;1999.90;999.90;;;;;;;16.92;100.00;98643.63;18635409;31;20136;-58
2023/10/05 15:58:59;;;;;;;1999.90;999.90;;;;;;;16.63;100.00;98656.41;18620513;31;20112;-58
2023/10/05 16:09:04;;;;;;;1999.90;999.90;;;;;;;16.43;100.00;98660.91;18627280;31;20115;-58
2023/10/05 16:19:08;;;;;;;1999.90;999.90;;;;;;;16.00;100.00;98671.56;18619421;31;20390;-58
2023/10/05 16:29:12;;;;;;;;;;;;;;;16.10;100.00;98685.13;18633072;31;20128;-58
2023/10/05 16:39:18;;;;;;;1999.90;999.90;;;;;;;15.81;100.00;98702.19;18632287;31;19940;-58
2023/10/05 16:49:21;;;;;;;1999.90;999.90;;;;;;;15.31;100.00;98690.34;18632024;31;20352;-58
2023/10/05 16:59:24;;;;;;;1999.90;999.90;;;;;;;15.12;100.00;98690.09;18630852;31;20420;-58
2023/10/05 17:09:28;;;;;;;1999.90;999.90;;;;;;;14.73;100.00;98702.34;18630140;31;20206;-58
2023/10/05 17:19:31;;;;;;;1999.90;999.90;;;;;;;14.53;100.00;98703.16;18629661;31;20063;-58
2023/10/05 17:29:34;;;;;;;1999.90;999.90;;;;;;;14.01;100.00;98697.59;18629641;31;20057;-58
2023/10/05 17:39:37;;;;;;;1999.90;999.90;;;;;;;13.61;100.00;98711.81;18613817;31;20352;-58
2023/10/05 17:49:40;;;;;;;1999.90;999.90;;;;;;;13.38;100.00;98722.03;18627498;31;20401;-58
2023/10/05 17:59:43;;;;;;;1999.90;999.90;;;;;;;13.03;100.00;98718.78;18620443;31;20044;-58
2023/10/05 18:09:46;;;;;;;1999.90;999.90;;;;;;;12.79;100.00;98715.59;18627011;31;20392;-58
2023/10/05 18:19:52;;;;;;;1999.90;999.90;;;;;;;12.39;100.00;98730.44;18626336;31;20071;-58
2023/10/05 18:29:57;;;;;;;1999.90;999.90;;;;;;;12.16;100.00;98735.06;18612497;31;20099;-58
2023/10/05 18:40:00;;;;;;;1999.90;999.90;;;;;;;11.99;100.00;98740.59;18625307;31;20063;-58
2023/10/05 18:50:03;;;;;;;1999.90;999.90;;;;;;;11.74;100.00;98743.75;18604769;31;20089;-58
2023/10/05 19:00:10;;;;;;;1999.90;999.90;;;;;;;11.52;100.00;98749.97;18629533;31;20048;-58
2023/10/05 19:10:14;;;;;;;1999.90;999.90;;;;;;;11.40;100.00;98737.59;18638099;31;20075;-58
2023/10/05 19:20:21;;;;;;;1999.90;999.90;;;;;;;11.17;100.00;98740.25;18637353;31;20083;-58
2023/10/05 19:30:24;;;;;;;1999.90;999.90;;;;;;;10.99;100.00;98741.34;18637075;31;20068;-58
2023/10/05 19:40:27;;;;;;;1999.90;999.90;;;;;;;10.77;100.00;98733.13;18635637;31;20071;-58
2023/10/05 19:50:29;;;;;;;1999.90;999.90;;;;;;;10.63;100.00;98740.75;18635092;31;20079;-58
2023/10/05 20:00:34;;;;;;;1999.90;999.90;;;;;;;10.48;100.00;98737.75;18634613;31;20071;-58
2023/10/05 20:10:37;;;;;;;1999.90;999.90;;;;;;;10.28;100.00;98751.69;18634256;31;20056;-58
2023/10/05 20:20:40;;;;;;;1999.90;999.90;;;;;;;10.10;100.00;98753.53;18633503;31;20067;-58
2023/10/05 20:30:43;;;;;;;1999.90;999.90;;;;;;;10.04;100.00;98770.69;18632991;31;20369;-58
2023/10/05 20:40:47;;;;;;;1999.90;999.90;;;;;;;9.86;100.00;98762.75;18631752;31;20090;-57
2023/10/05 20:50:51;;;;;;;1999.90;999.90;;;;;;;9.70;100.00;98773.22;18617675;31;20113;-58
2023/10/05 21:00:53;;;;;;;1999.90;999.90;;;;;;;9.49;100.00;98763.84;18630960;31;20049;-58
2023/10/05 21:10:56;;;;;;;1999.90;999.90;;;;;;;9.39;100.00;98759.06;18630399;31;20060;-58
2023/10/05 21:20:59;;;;;;;1999.90;999.90;;;;;;;9.24;100.00;98766.81;18614968;31;20127;-58
2023/10/05 21:31:05;;;;;;;1999.90;999.90;;;;;;;9.02;100.00;98759.28;18629250;31;20052;-58
2023/10/05 21:41:07;;;;;;;1999.90;999.90;;;;;;;8.95;100.00;98748.59;18628186;31;20044;-58
2023/10/05 21:51:10;;;;;;;1999.90;999.90;;;;;;;8.90;100.00;98739.56;18628187;31;20053;-58
2023/10/05 22:01:14;;;;;;;1999.90;999.90;;;;;;;8.76;100.00;98733.56;18613602;31;20065;-58
2023/10/05 22:11:17;;;;;;;1999.90;999.90;;;;;;;8.71;100.00;98726.13;18613144;31;20455;-58
2023/10/05 22:21:19;;;;;;;1999.90;999.90;;;;;;;8.63;100.00;98721.09;18626347;31;20138;-58
2023/10/05 22:31:22;;;;;;;1999.90;999.90;;;;;;;8.55;100.00;98710.63;18604987;31;20116;-58
2023/10/05 22:41:24;;;;;;;1999.90;999.90;;;;;;;8.37;100.00;98720.41;18625367;31;20083;-58
2023/10/05 22:51:27;;;;;;;1999.90;999.90;;;;;;;8.30;100.00;98725.91;18625263;31;20405;-58
2023/10/05 23:01:40;;;;;;;1999.90;999.90;;;;;;;8.30;100.00;98741.22;18625272;31;20064;-58
2023/10/05 23:11:43;;;;;;;1999.90;999.90;;;;;;;8.35;100.00;98751.34;18624827;31;20053;-58
2023/10/05 23:21:45;;;;;;;1999.90;999.90;;;;;;;8.27;100.00;98768.66;18624669;31;20093;-58
2023/10/05 23:31:54;;;;;;;1999.90;999.90;;;;;;;8.26;100.00;98769.69;18609960;31;20094;-58
2023/10/05 23:42:10;;;;;;;1999.90;999.90;;;;;;;8.19;100.00;98775.16;18609540;31;20048;-58
2023/10/05 23:52:14;;;;;;;1999.90;999.90;;;;;;;7.89;100.00;98767.84;18634817;31;20060;-58
